Time;durP1;ratioP1;P1;durP2;ratioP2;P2;SDS_P1;SDS_P2;PMS_P1;PMS_P2;Temp;Humidity;BMP_temperature;BMP_pressure;BME280_temperature;BME280_humidity;BME280_pressure;Samples;Min_cycle;Max_cycle;Signal;HPM_P1;HPM_P2
2023/03/10 00:01:18;;;;;;;24.98;11.82;;;256.00;2252.80;;;;;;5094354;28;20050;-80
2023/03/10 00:03:44;;;;;;;11.95;6.43;;;256.10;2252.80;;;;;;5092625;28;20065;-77
2023/03/10 00:06:14;;;;;;;12.30;5.90;;;256.10;2252.80;;;;;;5113622;28;20131;-81
2023/03/10 00:08:40;;;;;;;9.10;5.75;;;256.20;2252.80;;;;;;5114622;28;20031;-82
2023/03/10 00:11:06;;;;;;;8.52;5.07;;;256.20;2252.80;;;;;;5114121;28;20155;-79
2023/03/10 00:13:32;;;;;;;10.10;5.72;;;256.10;2252.80;;;;;;5113310;28;20067;-84
2023/03/10 00:15:58;;;;;;;8.98;5.57;;;231.30;2252.80;;;;;;5108459;28;20103;-85
2023/03/10 00:18:24;;;;;;;11.23;5.72;;;;;;;;;;5112439;28;20111;-77
2023/03/10 00:20:51;;;;;;;10.20;5.93;;;;;;;;;;5112070;28;20024;-79
2023/03/10 00:23:17;;;;;;;9.30;6.50;;;;;;;;;;5100254;28;20028;-81
2023/03/10 00:25:43;;;;;;;20.83;8.90;;;;;;;;;;5109036;28;20027;-80
2023/03/10 00:28:09;;;;;;;14.90;8.50;;;;;;;;;;5114239;28;20027;-78
2023/03/10 00:30:35;;;;;;;14.52;7.57;;;;;;;;;;5113781;28;20031;-83
2023/03/10 00:33:02;;;;;;;11.52;7.25;;;;;;;;;;5113983;28;20020;-79
2023/03/10 00:35:28;;;;;;;10.80;7.07;;;;;;;;;;5114590;28;20050;-77
2023/03/10 00:37:55;;;;;;;13.70;7.80;;;;;;;;;;5113515;28;20106;-77
2023/03/10 00:40:21;;;;;;;10.77;6.68;;;;;;;;;;5110401;28;20023;-77
2023/03/10 00:42:47;;;;;;;11.15;6.57;;;;;;;;;;5094912;28;20046;-76
2023/03/10 00:45:13;;;;;;;11.10;6.57;;;;;;;;;;5113612;28;20468;-81
2023/03/10 00:47:39;;;;;;;9.70;6.18;;;;;;;;;;5112816;28;20364;-77
2023/03/10 00:50:05;;;;;;;10.95;5.80;;;;;;;;;;5113300;28;20463;-80
2023/03/10 00:52:32;;;;;;;11.13;6.63;;;;;;;;;;5113406;28;20460;-81
2023/03/10 00:54:58;;;;;;;10.10;6.10;;;;;;;;;;5095940;28;20039;-82
2023/03/10 00:57:25;;;;;;;10.18;5.95;;;;;;;;;;5115784;27;20024;-77
2023/03/10 00:59:51;;;;;;;9.18;5.75;;;230.90;2252.80;;;;;;5113742;28;20397;-76
2023/03/10 01:02:18;;;;;;;9.27;6.20;;;230.90;2252.80;;;;;;5094891;28;20054;-80
2023/03/10 01:04:44;;;;;;;10.05;6.03;;;230.90;2252.80;;;;;;5109220;28;20012;-77
2023/03/10 01:07:09;;;;;;;10.57;6.13;;;230.80;2252.80;;;;;;5100550;28;20038;-84
2023/03/10 01:09:35;;;;;;;9.95;6.50;;;230.80;2252.80;;;;;;5111229;28;20160;-82
2023/03/10 01:12:01;;;;;;;9.70;6.18;;;230.80;2252.80;;;;;;5111535;28;20059;-87
2023/03/10 01:14:26;;;;;;;10.30;6.30;;;230.90;2252.80;;;;;;5113328;28;20118;-79
2023/03/10 01:16:52;;;;;;;11.63;6.30;;;230.80;2252.80;;;;;;5107852;28;20051;-80
2023/03/10 01:19:18;;;;;;;10.00;5.70;;;231.10;2252.80;;;;;;5093482;28;20074;-80
2023/03/10 01:21:43;;;;;;;10.60;6.05;;;231.20;2252.80;;;;;;5112685;28;20028;-78
2023/03/10 01:24:14;;;;;;;10.18;6.28;;;231.30;2252.80;;;;;;5113067;28;20321;-80
2023/03/10 01:26:39;;;;;;;10.32;6.47;;;256.00;2252.80;;;;;;5112968;28;20150;-79
2023/03/10 01:29:05;;;;;;;8.98;5.75;;;256.00;2252.80;;;;;;5090294;28;20504;-79
2023/03/10 01:31:31;;;;;;;9.80;5.88;;;256.10;2252.80;;;;;;5107586;28;20039;-82
2023/03/10 01:33:57;;;;;;;10.57;5.97;;;256.10;2252.80;;;;;;5112675;28;20155;-77
2023/03/10 01:36:25;;;;;;;10.02;5.95;;;256.10;2252.80;;;;;;5112516;28;20035;-79
2023/03/10 01:38:51;;;;;;;9.68;5.82;;;256.10;2252.80;;;;;;5112761;28;20385;-76
2023/03/10 01:41:18;;;;;;;10.02;6.00;;;256.20;2252.80;;;;;;5097382;28;20030;-80
2023/03/10 01:43:47;;;;;;;37.17;21.42;;;256.30;2252.80;;;;;;5105784;28;20035;-77
2023/03/10 01:46:28;;;;;;;58.72;44.33;;;256.30;2252.80;;;;;;5100968;28;20075;-78
2023/03/10 01:48:57;;;;;;;28.67;18.50;;;256.30;2252.80;;;;;;5112710;28;20072;-77
2023/03/10 01:51:23;;;;;;;18.13;11.48;;;256.20;2252.80;;;;;;5111931;28;20036;-78
2023/03/10 01:53:49;;;;;;;16.83;10.63;;;256.10;2252.80;;;;;;5111878;28;20098;-78
2023/03/10 01:56:16;;;;;;;22.83;15.02;;;256.10;2252.80;;;;;;5112185;28;20031;-77
2023/03/10 01:58:44;;;;;;;17.73;10.65;;;256.10;2252.80;;;;;;5112261;28;20031;-77
2023/03/10 02:01:12;;;;;;;24.55;16.02;;;256.00;2252.80;;;;;;5109557;28;20051;-78
2023/03/10 02:03:55;;;;;;;9.32;6.32;;;256.00;2252.80;;;;;;5090962;28;20027;-77
2023/03/10 02:06:21;;;;;;;10.65;5.82;;;256.00;2252.80;;;;;;5112205;28;20030;-78
2023/03/10 02:08:51;;;;;;;10.15;6.03;;;256.10;2252.80;;;;;;5112339;28;20022;-76
2023/03/10 02:11:18;;;;;;;11.65;6.28;;;256.00;2252.80;;;;;;5112169;28;20035;-83
2023/03/10 02:13:44;;;;;;;13.60;6.38;;;256.00;2252.80;;;;;;5112024;28;20015;-78
2023/03/10 02:16:10;;;;;;;10.07;6.15;;;256.00;2252.80;;;;;;5094234;28;20028;-80
2023/03/10 02:18:35;;;;;;;10.45;6.35;;;231.30;2252.80;;;;;;5112180;28;20120;-79
2023/03/10 02:21:04;;;;;;;10.82;6.20;;;231.20;2252.80;;;;;;5108680;28;20030;-80
2023/03/10 02:24:01;;;;;;;10.65;6.18;;;231.10;2252.80;;;;;;5112181;28;20031;-77
2023/03/10 02:26:45;;;;;;;11.30;6.10;;;231.10;2252.80;;;;;;5112014;28;20027;-81
2023/03/10 02:29:45;;;;;;;9.70;5.53;;;231.00;2252.80;;;;;;5112233;28;20024;-77
2023/03/10 02:32:12;;;;;;;9.55;5.72;;;231.00;2252.80;;;;;;5030038;28;20045;-77
2023/03/10 02:34:38;;;;;;;10.10;5.82;;;230.90;2252.80;;;;;;5032636;28;20049;-77
2023/03/10 02:37:04;;;;;;;11.93;6.40;;;230.90;2252.80;;;;;;5035546;28;20046;-78
2023/03/10 02:39:29;;;;;;;8.35;5.68;;;230.90;2252.80;;;;;;5032632;28;20033;-79
2023/03/10 02:41:55;;;;;;;8.90;5.72;;;230.80;2252.80;;;;;;5037289;28;20037;-78
2023/03/10 02:44:23;;;;;;;8.98;5.85;;;230.80;2252.80;;;;;;5032449;28;20479;-76
2023/03/10 02:46:49;;;;;;;10.40;5.53;;;230.70;2252.80;;;;;;5033133;28;20029;-78
2023/03/10 02:49:17;;;;;;;8.25;5.32;;;230.70;2252.80;;;;;;5032670;28;20025;-77
2023/03/10 02:51:45;;;;;;;7.55;4.60;;;230.60;2252.80;;;;;;5032838;28;20033;-76
2023/03/10 02:54:11;;;;;;;7.90;4.93;;;230.60;2252.80;;;;;;5032706;28;20125;-76
2023/03/10 02:56:38;;;;;;;11.52;5.28;;;230.70;2252.80;;;;;;5035489;28;20040;-78
2023/03/10 02:59:06;;;;;;;10.88;5.60;;;230.60;2252.80;;;;;;5032515;28;20045;-76
2023/03/10 03:01:33;;;;;;;9.63;5.07;;;230.60;2252.80;;;;;;5032579;28;20048;-78
2023/03/10 03:04:00;;;;;;;10.48;5.30;;;230.60;2252.80;;;;;;5032868;28;20078;-76
2023/03/10 03:06:26;;;;;;;11.25;5.32;;;230.50;2252.80;;;;;;5032381;28;20383;-78
2023/03/10 03:08:52;;;;;;;8.15;5.05;;;230.60;2252.80;;;;;;5053958;28;20119;-76
2023/03/10 03:11:18;;;;;;;9.15;5.60;;;230.60;2252.80;;;;;;5094159;28;20115;-81
2023/03/10 03:13:43;;;;;;;10.10;5.78;;;230.60;2252.80;;;;;;5114664;28;20034;-78
2023/03/10 03:16:09;;;;;;;12.27;5.72;;;230.60;2252.80;;;;;;5115222;28;20028;-79
2023/03/10 03:18:35;;;;;;;9.50;5.60;;;230.60;2252.80;;;;;;5114695;28;20514;-76
2023/03/10 03:21:11;;;;;;;9.52;5.53;;;230.60;2252.80;;;;;;5115224;28;20039;-77
2023/03/10 03:23:38;;;;;;;9.68;5.65;;;230.50;2252.80;;;;;;5097255;28;20039;-76
2023/03/10 03:26:05;;;;;;;9.75;5.70;;;230.50;2252.80;;;;;;5115266;28;20039;-77
2023/03/10 03:28:30;;;;;;;12.13;5.78;;;205.70;2252.80;;;;;;5112553;27;20073;-77
2023/03/10 03:30:56;;;;;;;12.48;5.70;;;205.60;2252.80;;;;;;5115129;28;20122;-78
2023/03/10 03:33:22;;;;;;;10.05;6.07;;;205.50;2252.80;;;;;;5115039;28;20023;-78
2023/03/10 03:35:48;;;;;;;11.73;5.65;;;205.50;2252.80;;;;;;5115007;28;20443;-77
2023/03/10 03:38:13;;;;;;;13.75;6.30;;;205.50;2252.80;;;;;;5114532;28;20149;-78
2023/03/10 03:40:39;;;;;;;9.90;6.28;;;205.50;2252.80;;;;;;5114700;28;20087;-79
2023/03/10 03:43:05;;;;;;;11.18;7.10;;;205.40;2252.80;;;;;;5114197;28;20015;-80
2023/03/10 03:45:31;;;;;;;12.88;7.70;;;205.40;2252.80;;;;;;5112891;27;20220;-77
2023/03/10 03:47:58;;;;;;;14.25;7.80;;;205.40;2252.80;;;;;;5114242;28;20028;-78
2023/03/10 03:50:25;;;;;;;11.85;7.50;;;205.40;2252.80;;;;;;5114226;28;20106;-79
2023/03/10 03:52:50;;;;;;;13.27;7.40;;;205.40;2252.80;;;;;;5114411;28;20031;-78
2023/03/10 03:55:18;;;;;;;13.40;7.63;;;205.40;2252.80;;;;;;5114156;28;20024;-87
2023/03/10 03:57:44;;;;;;;13.65;7.68;;;205.50;2252.80;;;;;;5114519;28;20093;-77
2023/03/10 04:00:21;;;;;;;13.35;7.55;;;205.50;2252.80;;;;;;5113372;28;20031;-77
2023/03/10 04:02:47;;;;;;;12.88;7.80;;;205.50;2252.80;;;;;;5114644;28;20084;-77
2023/03/10 04:05:14;;;;;;;15.75;7.70;;;205.60;2252.80;;;;;;5113926;28;20030;-80
2023/03/10 04:07:40;;;;;;;11.95;7.35;;;205.60;2252.80;;;;;;5114328;28;20139;-77
2023/03/10 04:10:09;;;;;;;13.20;7.85;;;205.60;2252.80;;;;;;5114179;28;20376;-77
2023/03/10 04:12:34;;;;;;;13.18;7.63;;;205.70;2252.80;;;;;;5114046;28;20031;-79
2023/03/10 04:15:00;;;;;;;17.48;9.02;;;205.70;2252.80;;;;;;5114291;28;20039;-77
2023/03/10 04:17:26;;;;;;;11.57;7.50;;;205.70;2252.80;;;;;;5113849;28;20031;-80
2023/03/10 04:19:51;;;;;;;13.98;7.60;;;230.40;2252.80;;;;;;5113819;28;20138;-80
2023/03/10 04:22:17;;;;;;;12.32;7.47;;;205.70;2252.80;;;;;;5114173;28;20024;-78
2023/03/10 04:24:43;;;;;;;13.43;7.70;;;230.40;2252.80;;;;;;5113441;28;20380;-77
2023/03/10 04:27:10;;;;;;;14.32;8.00;;;205.70;2252.80;;;;;;5113556;28;20030;-78
2023/03/10 04:29:36;;;;;;;14.20;7.72;;;205.70;2252.80;;;;;;5114037;28;20035;-82
2023/03/10 04:32:03;;;;;;;11.90;7.43;;;205.70;2252.80;;;;;;5113456;28;20106;-78
2023/03/10 04:34:29;;;;;;;13.15;7.82;;;205.70;2252.80;;;;;;5095020;28;20476;-77
2023/03/10 04:36:55;;;;;;;13.45;8.13;;;205.60;2252.80;;;;;;5113933;28;20024;-78
2023/03/10 04:39:20;;;;;;;12.93;8.30;;;205.60;2252.80;;;;;;5113738;28;20172;-81
2023/03/10 04:41:46;;;;;;;14.68;8.18;;;205.60;2252.80;;;;;;5112993;28;20027;-81
2023/03/10 04:44:12;;;;;;;15.63;8.40;;;205.60;2252.80;;;;;;5095130;28;20372;-81
2023/03/10 04:46:37;;;;;;;14.30;8.40;;;205.60;2252.80;;;;;;5113611;28;20034;-82
2023/03/10 04:49:03;;;;;;;14.45;8.07;;;205.60;2252.80;;;;;;5113357;28;20024;-82
2023/03/10 04:51:29;;;;;;;13.95;8.90;;;205.60;2252.80;;;;;;5113610;28;20031;-78
2023/03/10 04:53:56;;;;;;;15.90;8.73;;;205.60;2252.80;;;;;;5113455;28;20024;-78
2023/03/10 04:56:22;;;;;;;14.02;8.82;;;205.60;2252.80;;;;;;5112301;28;20020;-76
2023/03/10 04:58:48;;;;;;;17.88;9.88;;;205.60;2252.80;;;;;;5095093;28;20035;-79
2023/03/10 05:01:14;;;;;;;14.32;9.30;;;205.60;2252.80;;;;;;5092746;28;20048;-77
2023/03/10 05:03:40;;;;;;;16.25;9.48;;;205.60;2252.80;;;;;;5100058;28;20028;-80
2023/03/10 05:06:18;;;;;;;17.42;10.00;;;205.60;2252.80;;;;;;5113458;28;20026;-79
2023/03/10 05:08:45;;;;;;;17.60;9.90;;;205.60;2252.80;;;;;;5113485;28;20015;-77
2023/03/10 05:11:11;;;;;;;18.10;9.63;;;205.60;2252.80;;;;;;5106806;28;20039;-77
2023/03/10 05:13:37;;;;;;;15.77;9.23;;;205.60;2252.80;;;;;;5112643;28;20138;-78
2023/03/10 05:16:03;;;;;;;15.55;10.23;;;205.60;2252.80;;;;;;5112663;28;20465;-78
2023/03/10 05:18:29;;;;;;;18.10;9.95;;;205.70;2252.80;;;;;;5112983;28;20472;-77
2023/03/10 05:20:57;;;;;;;16.20;10.20;;;205.60;2252.80;;;;;;5112754;28;20036;-77
2023/03/10 05:23:23;;;;;;;16.88;9.93;;;205.50;2252.80;;;;;;5112759;28;20020;-76
2023/03/10 05:25:49;;;;;;;16.15;10.50;;;205.50;2252.80;;;;;;5109640;28;20077;-78
2023/03/10 05:28:15;;;;;;;16.83;9.95;;;205.50;2252.80;;;;;;5112442;28;20024;-76
2023/03/10 05:30:41;;;;;;;15.23;9.43;;;205.50;2252.80;;;;;;5112834;28;20019;-80
2023/03/10 05:33:07;;;;;;;16.00;9.77;;;205.50;2252.80;;;;;;5113312;28;20158;-79
2023/03/10 05:35:32;;;;;;;23.30;14.75;;;205.50;2252.80;;;;;;5112737;28;20023;-76
2023/03/10 05:37:58;;;;;;;108.50;48.58;;;205.60;2252.80;;;;;;5112499;28;20457;-76
2023/03/10 05:40:24;;;;;;;18.02;10.85;;;205.60;2252.80;;;;;;5112134;28;20040;-77
2023/03/10 05:42:50;;;;;;;21.13;11.65;;;205.60;2252.80;;;;;;5105586;28;20034;-76
2023/03/10 05:45:16;;;;;;;38.58;18.63;;;205.70;2252.80;;;;;;5112172;28;20028;-77
2023/03/10 05:47:42;;;;;;;35.95;16.05;;;230.40;2252.80;;;;;;5094408;28;20024;-77
2023/03/10 05:50:10;;;;;;;22.80;11.63;;;230.50;2252.80;;;;;;5112387;28;20031;-77
2023/03/10 05:52:37;;;;;;;20.02;10.57;;;230.50;2252.80;;;;;;5111906;28;20023;-77
2023/03/10 05:55:03;;;;;;;16.95;9.10;;;230.60;2252.80;;;;;;5112124;28;20020;-80
2023/03/10 05:57:29;;;;;;;18.40;10.35;;;230.60;2252.80;;;;;;5110280;28;20031;-80
2023/03/10 05:59:55;;;;;;;14.65;9.60;;;230.60;2252.80;;;;;;5104691;28;20024;-78
2023/03/10 06:02:20;;;;;;;16.48;10.20;;;230.60;2252.80;;;;;;5112427;28;20055;-80
2023/03/10 06:04:46;;;;;;;17.58;10.10;;;230.70;2252.80;;;;;;5112550;28;20035;-83
2023/03/10 06:07:11;;;;;;;16.80;10.70;;;230.70;2252.80;;;;;;5115600;28;20146;-79
2023/03/10 06:09:37;;;;;;;20.13;12.35;;;230.70;2252.80;;;;;;5098725;28;20307;-80
2023/03/10 06:12:03;;;;;;;18.48;11.98;;;230.80;2252.80;;;;;;5116459;28;20043;-78
2023/03/10 06:14:29;;;;;;;80.03;52.20;;;230.80;2252.80;;;;;;5116987;28;20062;-79
2023/03/10 06:16:56;;;;;;;175.85;118.65;;;230.80;2252.80;;;;;;5113852;28;20369;-76
2023/03/10 06:19:23;;;;;;;57.42;35.97;;;230.70;2252.80;;;;;;5116698;28;20019;-77
2023/03/10 06:21:49;;;;;;;45.25;31.05;;;231.10;2252.80;;;;;;5116296;28;20059;-81
2023/03/10 06:24:15;;;;;;;39.97;27.25;;;230.70;2252.80;;;;;;5116677;28;20089;-78
2023/03/10 06:26:41;;;;;;;231.50;142.05;;;230.70;2252.80;;;;;;5114926;28;20948;-80
2023/03/10 06:29:07;;;;;;;158.77;92.05;;;230.80;2252.80;;;;;;5097670;28;20142;-78
2023/03/10 06:31:33;;;;;;;52.05;30.48;;;230.80;2252.80;;;;;;5116570;28;20032;-76
2023/03/10 06:34:00;;;;;;;39.58;23.63;;;230.90;2252.80;;;;;;5116661;27;20380;-77
2023/03/10 06:36:27;;;;;;;22.65;14.82;;;230.90;2252.80;;;;;;5115843;28;20031;-76
2023/03/10 06:38:54;;;;;;;18.73;11.65;;;231.00;2252.80;;;;;;5116178;28;20095;-78
2023/03/10 06:41:21;;;;;;;26.48;15.75;;;;;;;;;;5115837;28;20032;-76
2023/03/10 06:43:47;;;;;;;24.23;15.15;;;;;;;;;;5116185;28;20015;-76
2023/03/10 06:46:14;;;;;;;38.63;23.98;;;;;;;;;;5115893;28;20027;-78
2023/03/10 06:48:40;;;;;;;29.42;18.02;;;;;;;;;;5113161;28;20020;-80
2023/03/10 06:51:09;;;;;;;46.75;23.33;;;256.40;2252.80;;;;;;5115649;28;20035;-78
2023/03/10 06:53:35;;;;;;;44.40;23.65;;;256.30;2252.80;;;;;;5113731;28;20020;-76
2023/03/10 06:56:01;;;;;;;107.03;48.05;;;256.20;2252.80;;;;;;5114686;28;20019;-78
2023/03/10 06:58:28;;;;;;;88.20;45.22;;;256.30;2252.80;;;;;;5096338;28;20495;-78
2023/03/10 07:00:54;;;;;;;65.95;35.47;;;256.30;2252.80;;;;;;5108283;28;20047;-80
2023/03/10 07:03:20;;;;;;;56.50;31.70;;;256.40;2252.80;;;;;;5114819;28;20027;-79
2023/03/10 07:05:47;;;;;;;54.78;31.20;;;256.40;2252.80;;;;;;5083873;28;20080;-76
2023/03/10 07:08:12;;;;;;;66.28;38.25;;;256.50;2252.80;;;;;;5097911;28;20092;-78
2023/03/10 07:10:38;;;;;;;68.68;38.15;;;256.60;2252.80;;;;;;5108663;28;20504;-78
2023/03/10 07:13:04;;;;;;;58.47;32.10;;;256.70;2252.80;;;;;;5115000;28;20023;-83
2023/03/10 07:15:30;;;;;;;51.70;29.05;;;256.80;2252.80;;;;;;5115320;28;20031;-85
2023/03/10 07:17:56;;;;;;;58.00;32.47;;;256.80;2252.80;;;;;;5114797;28;20036;-76
2023/03/10 07:20:23;;;;;;;72.07;34.65;;;281.60;2278.40;;;;;;5115587;28;20035;-84
2023/03/10 07:22:49;;;;;;;78.10;40.20;;;281.70;2278.40;;;;;;5115550;28;20077;-79
2023/03/10 07:25:15;;;;;;;76.20;39.88;;;281.80;2278.40;;;;;;5115310;28;20389;-77
2023/03/10 07:27:41;;;;;;;70.30;36.58;;;281.60;2278.40;;;;;;5111916;28;20016;-77
2023/03/10 07:30:07;;;;;;;67.32;35.92;;;281.60;2278.40;;;;;;5096744;28;20097;-80
2023/03/10 07:32:33;;;;;;;59.38;31.83;;;281.70;2278.40;;;;;;5093829;28;20048;-77
2023/03/10 07:34:59;;;;;;;47.22;29.73;;;281.60;2278.40;;;;;;5114130;28;20058;-78
2023/03/10 07:37:24;;;;;;;36.70;22.08;;;281.60;2278.40;;;;;;5115390;28;20072;-80
2023/03/10 07:39:53;;;;;;;32.83;20.10;;;281.70;2278.40;;;;;;5114910;28;20104;-78
2023/03/10 07:42:19;;;;;;;30.65;18.42;;;281.70;2278.40;;;;;;5111290;27;20809;-82
2023/03/10 07:44:44;;;;;;;30.08;18.15;;;281.80;2278.40;;;;;;5111356;28;20127;-79
2023/03/10 07:47:10;;;;;;;27.98;15.18;;;281.90;2278.40;;;;;;5096768;28;20043;-79
2023/03/10 07:49:36;;;;;;;33.45;25.55;;;281.90;2278.40;;;;;;5114710;28;20028;-77
2023/03/10 07:52:02;;;;;;;27.95;18.13;;;281.90;2278.40;;;;;;5115360;28;20491;-79
2023/03/10 07:54:28;;;;;;;52.00;34.47;;;282.00;2278.40;;;;;;5115100;28;20020;-77
2023/03/10 07:56:53;;;;;;;31.77;22.17;;;282.10;2278.40;;;;;;5114530;28;20038;-76
2023/03/10 07:59:19;;;;;;;39.75;26.55;;;282.10;2278.40;;;;;;5093212;28;20032;-76
2023/03/10 08:01:45;;;;;;;28.15;18.23;;;282.10;2278.40;;;;;;5113183;28;20386;-77
2023/03/10 08:04:11;;;;;;;26.50;15.73;;;282.00;2278.40;;;;;;5114550;28;20027;-79
2023/03/10 08:06:37;;;;;;;37.67;24.70;;;282.00;2278.40;;;;;;5114836;28;20023;-83
2023/03/10 08:09:03;;;;;;;32.92;21.40;;;282.00;2278.40;;;;;;5114507;28;20385;-76
2023/03/10 08:11:28;;;;;;;34.80;23.48;;;282.00;2278.40;;;;;;5113749;28;20024;-77
2023/03/10 08:13:54;;;;;;;38.38;26.48;;;282.00;2278.40;;;;;;5113994;28;20031;-78
2023/03/10 08:16:22;;;;;;;30.00;20.92;;;282.00;2278.40;;;;;;5111644;28;20028;-77
2023/03/10 08:18:50;;;;;;;35.08;22.67;;;281.90;2278.40;;;;;;5114321;28;20104;-77
2023/03/10 08:21:16;;;;;;;34.25;23.15;;;282.00;2278.40;;;;;;5113956;28;20098;-79
2023/03/10 08:23:41;;;;;;;48.42;31.48;;;281.90;2278.40;;;;;;5114233;28;20084;-76
2023/03/10 08:26:11;;;;;;;44.60;33.17;;;281.90;2278.40;;;;;;5114162;28;20030;-77
2023/03/10 08:28:37;;;;;;;27.20;17.67;;;281.90;2278.40;;;;;;5113974;28;20030;-78
2023/03/10 08:31:18;;;;;;;34.45;21.60;;;281.90;2278.40;;;;;;5110426;28;20039;-76
2023/03/10 08:33:44;;;;;;;31.10;19.08;;;282.00;2278.40;;;;;;5095239;28;20040;-76
2023/03/10 08:36:13;;;;;;;28.83;19.55;;;282.00;2278.40;;;;;;5114354;28;20078;-77
2023/03/10 08:38:39;;;;;;;20.85;12.98;;;282.00;2278.40;;;;;;5113450;28;20023;-75
2023/03/10 08:41:21;;;;;;;25.92;17.65;;;282.00;2278.40;;;;;;5113696;28;20039;-77
2023/03/10 08:43:49;;;;;;;24.60;15.70;;;282.10;2278.40;;;;;;5113788;28;20369;-77
2023/03/10 08:46:15;;;;;;;21.85;14.10;;;282.10;2278.40;;;;;;5095400;28;20034;-78
2023/03/10 08:48:41;;;;;;;22.58;13.32;;;282.10;2278.40;;;;;;5114101;27;20372;-76
2023/03/10 08:51:08;;;;;;;31.52;20.05;;;282.10;2278.40;;;;;;5113523;28;20031;-78
2023/03/10 08:53:35;;;;;;;37.97;20.70;;;282.10;2278.40;;;;;;5113514;28;20026;-77
2023/03/10 08:56:23;;;;;;;19.35;11.07;;;282.10;2278.40;;;;;;5113212;28;20031;-79
2023/03/10 08:58:49;;;;;;;19.40;13.07;;;282.20;2278.40;;;;;;5086143;28;20027;-77
2023/03/10 09:01:16;;;;;;;77.88;38.58;;;282.20;2278.40;;;;;;5097679;28;20156;-80
2023/03/10 09:03:43;;;;;;;34.42;21.10;;;282.30;2278.40;;;;;;5111110;28;20107;-78
2023/03/10 09:06:09;;;;;;;38.78;24.35;;;282.30;2278.40;;;;;;5113219;28;20481;-84
2023/03/10 09:08:35;;;;;;;24.00;14.95;;;282.40;2278.40;;;;;;5113195;28;20023;-76
2023/03/10 09:11:01;;;;;;;28.58;18.67;;;282.40;2278.40;;;;;;5113306;28;20031;-78
2023/03/10 09:13:27;;;;;;;46.22;31.25;;;282.50;2278.40;;;;;;5113762;28;20143;-80
2023/03/10 09:15:53;;;;;;;26.05;15.70;;;307.30;2304.00;;;;;;5109705;28;20020;-82
2023/03/10 09:18:20;;;;;;;73.28;43.50;;;282.50;2278.40;;;;;;5113327;28;20473;-83
2023/03/10 09:20:46;;;;;;;26.50;17.05;;;282.50;2278.40;;;;;;5112262;28;20073;-78
2023/03/10 09:23:13;;;;;;;30.35;19.05;;;307.20;2304.00;;;;;;5112665;28;20057;-80
2023/03/10 09:25:39;;;;;;;27.85;17.13;;;307.20;2304.00;;;;;;5093438;28;20039;-78
2023/03/10 09:28:06;;;;;;;36.22;22.10;;;307.40;2304.00;;;;;;5110353;28;20024;-81
2023/03/10 09:30:36;;;;;;;45.67;29.88;;;307.60;2304.00;;;;;;5110579;28;20143;-79
2023/03/10 09:33:03;;;;;;;31.38;15.95;;;307.60;2304.00;;;;;;5085582;28;20081;-81
2023/03/10 09:35:28;;;;;;;28.67;15.50;;;307.80;2304.00;;;;;;5101385;28;20067;-84
2023/03/10 09:37:54;;;;;;;23.10;13.63;;;307.90;2304.00;;;;;;5093068;28;20446;-82
2023/03/10 09:40:21;;;;;;;67.72;42.58;;;308.00;2304.00;;;;;;5093613;28;20130;-82
2023/03/10 09:42:50;;;;;;;43.05;20.15;;;332.80;2329.60;;;;;;5092403;28;20525;-85
2023/03/10 09:45:25;;;;;;;42.17;15.93;;;332.80;2329.60;;;;;;5110727;28;20028;-78
2023/03/10 09:48:00;;;;;;;35.00;16.65;;;332.80;2329.60;;;;;;5112993;28;20608;-79
2023/03/10 09:50:55;;;;;;;27.27;13.77;;;332.80;2329.60;;;;;;5111994;28;20058;-77
2023/03/10 09:53:33;;;;;;;40.63;24.27;;;332.90;2329.60;;;;;;5108734;28;20124;-77
2023/03/10 09:55:59;;;;;;;38.95;22.67;;;333.00;2329.60;;;;;;5110052;28;20027;-77
2023/03/10 09:58:46;;;;;;;23.52;13.18;;;333.00;2329.60;;;;;;5091244;28;20024;-80
2023/03/10 10:01:18;;;;;;;23.92;13.77;;;333.10;2329.60;;;;;;5027539;28;20076;-78
2023/03/10 10:04:19;;;;;;;16.63;9.63;;;333.20;2329.60;;;;;;5018165;28;20060;-78
2023/03/10 10:06:47;;;;;;;20.45;11.48;;;333.30;2329.60;;;;;;5009544;28;20034;-81
2023/03/10 10:09:41;;;;;;;19.30;10.30;;;333.40;2329.60;;;;;;4990394;28;20030;-81
2023/03/10 10:12:22;;;;;;;21.30;13.57;;;333.50;2329.60;;;;;;5020010;28;20037;-78
2023/03/10 10:15:07;;;;;;;9.07;5.70;;;333.50;2329.60;;;;;;5010638;28;20049;-79
2023/03/10 10:17:49;;;;;;;12.82;8.27;;;333.60;2329.60;;;;;;4997192;28;20100;-81
2023/03/10 10:21:08;;;;;;;10.70;7.00;;;333.60;2329.60;;;;;;4992293;28;20423;-80
2023/03/10 10:23:39;;;;;;;14.07;7.55;;;333.70;2329.60;;;;;;4950271;29;20054;-76
2023/03/10 10:26:11;;;;;;;17.42;11.88;;;358.50;2329.60;;;;;;4950091;29;20047;-78
2023/03/10 10:28:56;;;;;;;11.98;7.82;;;358.60;2329.60;;;;;;4945286;29;20488;-80
2023/03/10 10:31:25;;;;;;;11.32;6.63;;;358.80;2329.60;;;;;;4948145;29;20063;-85
2023/03/10 10:34:05;;;;;;;7.25;4.45;;;358.90;2329.60;;;;;;4952610;29;20085;-79
2023/03/10 10:36:40;;;;;;;8.82;4.10;;;359.00;2329.60;;;;;;4952316;29;20118;-82
2023/03/10 10:39:24;;;;;;;7.88;4.45;;;359.10;2329.60;;;;;;4982676;28;20061;-83
2023/03/10 10:41:50;;;;;;;6.40;3.50;;;359.20;2329.60;;;;;;4989263;28;20038;-83
2023/03/10 10:44:17;;;;;;;8.30;4.15;;;359.00;2329.60;;;;;;4991402;28;20081;-81
2023/03/10 10:47:19;;;;;;;8.02;4.95;;;359.20;2329.60;;;;;;4992504;28;20041;-82
2023/03/10 10:49:45;;;;;;;8.68;4.30;;;384.30;2329.60;;;;;;4969433;28;20039;-83
2023/03/10 10:52:23;;;;;;;11.20;6.82;;;384.20;2329.60;;;;;;4968776;28;20070;-80
2023/03/10 10:54:57;;;;;;;7.18;4.00;;;384.20;2329.60;;;;;;4956442;28;20050;-79
2023/03/10 10:57:52;;;;;;;10.75;6.00;;;384.40;2329.60;;;;;;4975823;28;20122;-79
2023/03/10 11:00:37;;;;;;;8.10;4.80;;;384.90;2329.60;;;;;;5036182;28;20132;-82
2023/03/10 11:03:35;;;;;;;12.48;7.07;;;409.90;2355.20;;;;;;5033777;28;20037;-81
2023/03/10 11:06:17;;;;;;;7.18;4.05;;;410.50;2355.20;;;;;;5068018;28;20040;-81
2023/03/10 11:08:49;;;;;;;7.10;3.90;;;410.50;2355.20;;;;;;5036305;28;20075;-82
2023/03/10 11:14:38;;;;;;;7.22;3.67;;;410.30;2355.20;;;;;;5052774;28;20032;-81
2023/03/10 11:17:13;;;;;;;5.55;3.00;;;409.90;2355.20;;;;;;5052467;28;20068;-80
2023/03/10 11:19:41;;;;;;;;;;;409.60;2355.20;;;;;;5062510;28;20041;-79
2023/03/10 11:22:35;;;;;;;6.28;3.83;;;384.70;2329.60;;;;;;5071147;28;19916;-79
2023/03/10 11:25:06;;;;;;;4.85;2.33;;;384.30;2329.60;;;;;;5042749;28;20382;-82
2023/03/10 11:27:52;;;;;;;12.07;4.97;;;384.20;2329.60;;;;;;5111059;28;20140;-79
2023/03/10 11:30:30;;;;;;;10.93;5.60;;;384.10;2329.60;;;;;;5099614;28;20102;-78
2023/03/10 11:33:38;;;;;;;14.45;7.20;;;384.10;2329.60;;;;;;5114999;28;20043;-79
2023/03/10 11:36:38;;;;;;;14.57;8.00;;;384.00;2329.60;;;;;;5111732;28;20023;-80
2023/03/10 11:39:14;;;;;;;28.58;14.07;;;384.00;2329.60;;;;;;5114924;28;20385;-82
2023/03/10 11:41:46;;;;;;;22.00;11.23;;;359.10;2329.60;;;;;;5113871;28;20032;-81
2023/03/10 11:44:29;;;;;;;48.97;25.25;;;359.00;2329.60;;;;;;5114759;28;20118;-78
2023/03/10 11:47:03;;;;;;;32.70;17.10;;;358.90;2329.60;;;;;;5096345;28;20697;-79
2023/03/10 11:49:42;;;;;;;24.92;15.30;;;358.90;2329.60;;;;;;5114401;28;20035;-78
2023/03/10 11:52:18;;;;;;;51.65;27.23;;;358.80;2329.60;;;;;;5108644;28;20043;-79
2023/03/10 11:54:49;;;;;;;26.45;14.57;;;358.80;2329.60;;;;;;5087713;28;20062;-77
2023/03/10 11:57:19;;;;;;;16.80;9.50;;;358.90;2329.60;;;;;;5093141;28;20365;-80
2023/03/10 12:00:01;;;;;;;47.60;24.30;;;358.90;2329.60;;;;;;5112673;28;20042;-79
2023/03/10 12:02:34;;;;;;;11.45;7.30;;;358.90;2329.60;;;;;;5094002;28;20047;-79
2023/03/10 12:05:06;;;;;;;8.50;5.30;;;358.90;2329.60;;;;;;5111794;28;20065;-79
2023/03/10 12:07:43;;;;;;;10.88;5.97;;;358.90;2329.60;;;;;;5097948;28;20374;-78
2023/03/10 12:10:11;;;;;;;6.88;4.72;;;359.00;2329.60;;;;;;5086305;28;20040;-76
2023/03/10 12:12:52;;;;;;;11.43;6.53;;;359.10;2329.60;;;;;;5112002;28;20020;-77
2023/03/10 12:15:31;;;;;;;10.95;6.20;;;359.10;2329.60;;;;;;5112475;28;20042;-76
2023/03/10 12:17:57;;;;;;;12.25;7.47;;;359.10;2329.60;;;;;;5112121;28;20494;-78
2023/03/10 12:20:28;;;;;;;15.35;7.70;;;359.10;2329.60;;;;;;5111996;28;20044;-78
2023/03/10 12:22:55;;;;;;;16.92;7.75;;;359.10;2329.60;;;;;;5112539;28;20023;-78
2023/03/10 12:25:27;;;;;;;13.38;7.60;;;359.10;2329.60;;;;;;5112575;28;20023;-78
2023/03/10 12:28:17;;;;;;;10.95;5.60;;;359.00;2329.60;;;;;;5112953;28;20230;-77